createdAt,value
2022-09-03T00:00:18.834Z,86.84
2022-09-03T00:04:21.366Z,87.00
2022-09-03T00:08:19.590Z,87.26
2022-09-03T00:12:21.539Z,86.84
2022-09-03T00:16:14.826Z,86.63
2022-09-03T00:20:11.543Z,86.86
2022-09-03T00:24:14.052Z,87.37
2022-09-03T00:28:07.901Z,87.47
2022-09-03T01:07:21.903Z,86.42
2022-09-03T01:11:20.165Z,86.91
2022-09-03T01:15:30.701Z,86.82
2022-09-03T01:19:29.062Z,86.41
2022-09-03T01:23:25.448Z,86.30
2022-09-03T01:27:29.878Z,86.58
2022-09-03T01:31:15.048Z,86.54
2022-09-03T01:35:12.697Z,86.52
2022-09-03T01:39:13.784Z,86.50
2022-09-03T01:43:24.722Z,86.51
2022-09-03T01:47:13.388Z,86.20
2022-09-03T01:51:03.046Z,86.46
2022-09-03T01:54:59.593Z,86.34
2022-09-03T01:59:10.397Z,86.26
2022-09-03T02:03:05.859Z,86.68
2022-09-03T02:06:58.662Z,86.44
2022-09-03T02:10:50.362Z,86.45
2022-09-03T02:14:42.565Z,86.38
2022-09-03T02:18:34.844Z,86.64
2022-09-03T02:22:34.770Z,86.81
2022-09-03T02:26:27.744Z,86.47
2022-09-03T02:42:17.987Z,86.72
2022-09-03T02:46:12.758Z,86.58
2022-09-03T02:50:02.890Z,86.55
2022-09-03T02:53:55.629Z,86.70
2022-09-03T03:44:35.375Z,88.10
2022-09-03T03:48:26.318Z,88.08
2022-09-03T03:52:18.469Z,87.91
2022-09-03T03:56:02.429Z,88.21
2022-09-03T03:59:55.310Z,88.13
2022-09-03T04:23:18.907Z,86.97
2022-09-03T04:27:12.512Z,87.10
2022-09-03T04:31:05.383Z,87.09
2022-09-03T04:35:02.375Z,87.34
2022-09-03T04:46:59.043Z,87.39
2022-09-03T04:50:52.255Z,87.14
2022-09-03T04:54:44.668Z,87.29
2022-09-03T04:58:37.042Z,87.15
2022-09-03T05:02:14.276Z,87.39
2022-09-03T05:21:36.835Z,86.75
2022-09-03T05:25:28.974Z,86.63
2022-09-03T05:29:21.088Z,86.81
2022-09-03T05:41:24.073Z,87.44
2022-09-03T05:45:17.008Z,86.93
2022-09-03T06:09:00.568Z,87.52
2022-09-03T06:12:55.392Z,87.20
2022-09-03T06:16:46.647Z,87.15
2022-09-03T06:32:31.087Z,86.07
2022-09-03T06:36:22.899Z,85.64
2022-09-03T06:40:14.389Z,85.38
2022-09-03T06:44:06.923Z,84.49
2022-09-03T07:03:11.930Z,83.84
2022-09-03T07:07:03.659Z,84.50
2022-09-03T07:10:47.951Z,83.81
2022-09-03T07:14:39.168Z,83.54
2022-09-03T07:38:06.191Z,82.83
2022-09-03T07:41:43.835Z,83.01
2022-09-03T07:45:37.216Z,82.62
2022-09-03T07:49:28.717Z,81.98
2022-09-03T08:05:01.244Z,82.26
2022-09-03T08:08:42.193Z,82.34
2022-09-03T08:12:34.604Z,82.50
2022-09-03T08:16:08.918Z,82.07
2022-09-03T08:43:06.595Z,80.57
2022-09-03T08:46:39.647Z,79.33
2022-09-03T08:50:20.908Z,79.12
2022-09-03T08:54:03.757Z,78.76
2022-09-03T08:57:16.541Z,78.55
2022-09-03T09:00:38.954Z,78.78
2022-09-03T09:04:05.321Z,78.80
2022-09-03T09:07:15.898Z,78.70
2022-09-03T09:11:04.701Z,78.82
2022-09-03T09:15:14.491Z,78.54
2022-09-03T09:18:33.248Z,78.51
2022-09-03T09:22:16.848Z,78.16
2022-09-03T10:04:40.828Z,71.76
2022-09-03T10:11:09.092Z,70.29
2022-09-03T10:14:02.578Z,70.08
2022-09-03T10:17:04.632Z,68.36
2022-09-03T10:20:47.891Z,67.04
2022-09-03T10:23:47.460Z,67.54
2022-09-03T10:26:29.548Z,67.64
2022-09-03T10:29:21.485Z,66.35
2022-09-03T10:32:27.399Z,66.29
2022-09-03T10:36:12.000Z,65.60
2022-09-03T10:39:13.630Z,66.45
2022-09-03T10:42:11.335Z,66.04
2022-09-03T10:45:41.481Z,66.52
2022-09-03T10:49:04.689Z,66.20
2022-09-03T10:52:29.652Z,65.87
2022-09-03T10:55:51.125Z,63.64
2022-09-03T10:59:10.227Z,63.09
2022-09-03T11:02:49.870Z,62.83
2022-09-03T11:05:38.826Z,62.25
2022-09-03T11:15:14.455Z,62.20
2022-09-03T11:17:59.057Z,61.42
2022-09-03T11:20:40.743Z,61.02
2022-09-03T11:23:23.504Z,62.69
2022-09-03T11:26:20.434Z,63.15
2022-09-03T11:29:50.707Z,61.29
2022-09-03T11:33:21.075Z,58.52
2022-09-03T11:36:02.073Z,58.54
2022-09-03T11:38:54.779Z,57.16
2022-09-03T11:41:36.073Z,56.34
2022-09-03T11:44:51.200Z,57.17
2022-09-03T11:47:44.810Z,57.20
2022-09-03T11:50:38.730Z,56.19
2022-09-03T11:54:21.471Z,57.59
2022-09-03T11:57:04.673Z,56.81
2022-09-03T11:59:49.749Z,55.32
2022-09-03T12:03:27.956Z,53.48
2022-09-03T12:06:45.659Z,54.13
2022-09-03T12:09:59.411Z,53.30
2022-09-03T12:13:14.289Z,53.25
2022-09-03T12:15:59.593Z,53.53
2022-09-03T12:19:05.405Z,53.89
2022-09-03T12:22:15.650Z,54.59
2022-09-03T12:25:27.567Z,56.96
2022-09-03T12:28:48.071Z,55.12
2022-09-03T12:31:58.741Z,54.82
2022-09-03T12:35:02.565Z,53.44
2022-09-03T12:38:06.833Z,52.17
2022-09-03T12:41:26.819Z,51.74
2022-09-03T12:44:34.953Z,52.06
2022-09-03T12:47:37.123Z,51.86
2022-09-03T12:50:42.623Z,50.54
2022-09-03T12:53:51.028Z,50.91
2022-09-03T12:56:49.138Z,52.42
2022-09-03T12:59:46.374Z,52.38
2022-09-03T13:03:05.790Z,51.97
2022-09-03T13:06:14.113Z,52.03
2022-09-03T13:09:06.002Z,52.26
2022-09-03T13:12:11.262Z,53.47
2022-09-03T13:15:26.968Z,53.02
2022-09-03T13:18:35.671Z,53.67
2022-09-03T13:21:39.667Z,52.59
2022-09-03T13:25:08.467Z,53.47
2022-09-03T13:28:32.694Z,54.42
2022-09-03T13:31:28.071Z,54.39
2022-09-03T13:34:26.765Z,55.02
2022-09-03T13:37:56.030Z,54.97
2022-09-03T13:41:00.108Z,55.42
2022-09-03T13:44:30.196Z,55.36
2022-09-03T13:47:55.162Z,55.58
2022-09-03T13:50:38.054Z,56.00
2022-09-03T13:54:01.604Z,56.15
2022-09-03T13:56:59.085Z,55.84
2022-09-03T14:00:09.404Z,56.15
2022-09-03T14:03:18.209Z,55.75
2022-09-03T14:06:29.650Z,56.34
2022-09-03T14:09:35.853Z,56.69
2022-09-03T14:12:46.399Z,56.96
2022-09-03T14:15:45.621Z,57.47
2022-09-03T14:19:17.334Z,57.76
2022-09-03T14:22:34.552Z,57.84
2022-09-03T14:25:39.326Z,58.27
2022-09-03T14:28:50.256Z,58.43
2022-09-03T14:32:18.970Z,58.85
2022-09-03T14:35:56.796Z,58.69
2022-09-03T14:39:15.156Z,58.79
2022-09-03T14:43:04.955Z,58.97
2022-09-03T14:46:18.928Z,58.48
2022-09-03T14:49:38.441Z,58.74
2022-09-03T14:53:10.768Z,59.02
2022-09-03T14:56:48.725Z,59.29
2022-09-03T14:59:39.077Z,59.53
2022-09-03T15:02:55.275Z,59.42
2022-09-03T15:06:30.893Z,59.57
2022-09-03T15:09:47.012Z,59.67
2022-09-03T15:13:26.241Z,59.29
2022-09-03T15:16:42.510Z,59.53
2022-09-03T15:20:15.374Z,60.23
2022-09-03T15:23:34.224Z,60.68
2022-09-03T15:26:53.898Z,61.05
2022-09-03T15:30:08.113Z,60.54
2022-09-03T15:33:19.091Z,60.91
2022-09-03T15:36:30.877Z,61.07
2022-09-03T16:32:39.034Z,63.75
2022-09-03T16:36:37.253Z,64.08
2022-09-03T16:40:29.586Z,64.09
2022-09-03T16:44:11.816Z,64.27
2022-09-03T16:48:08.589Z,64.27
2022-09-03T16:52:00.994Z,64.50
2022-09-03T16:55:49.325Z,64.62
2022-09-03T16:59:38.616Z,64.83
2022-09-03T17:03:00.055Z,65.09
2022-09-03T17:06:26.692Z,66.15
2022-09-03T17:10:02.900Z,66.12
2022-09-03T17:13:30.630Z,66.86
2022-09-03T17:17:17.395Z,66.66
2022-09-03T17:20:49.560Z,67.21
2022-09-03T17:24:02.923Z,67.87
2022-09-03T17:27:34.695Z,68.96
2022-09-03T17:31:22.454Z,68.89
2022-09-03T17:35:26.859Z,68.93
2022-09-03T17:38:55.459Z,69.63
2022-09-03T17:42:41.254Z,69.51
2022-09-03T17:46:20.062Z,69.25
2022-09-03T17:49:48.052Z,69.33
2022-09-03T17:53:09.395Z,69.40
2022-09-03T18:00:38.726Z,69.42
2022-09-03T18:03:55.866Z,69.74
2022-09-03T18:21:53.231Z,70.91
2022-09-03T18:25:06.477Z,71.44
2022-09-03T18:28:38.575Z,71.80
2022-09-03T18:32:00.655Z,71.16
2022-09-03T18:35:32.118Z,70.99
2022-09-03T18:39:14.199Z,71.42
2022-09-03T18:43:22.243Z,71.28
2022-09-03T18:51:00.006Z,71.25
2022-09-03T18:55:08.329Z,71.43
2022-09-03T18:59:07.156Z,71.30
2022-09-03T19:02:55.823Z,71.30
2022-09-03T19:06:58.831Z,71.60
2022-09-03T19:10:48.267Z,71.77
2022-09-03T19:14:37.644Z,71.86
2022-09-03T19:18:33.476Z,71.67
2022-09-03T19:22:16.295Z,71.92
2022-09-03T19:26:02.788Z,71.46
2022-09-03T19:29:42.715Z,71.66
2022-09-03T19:33:50.913Z,71.92
2022-09-03T19:37:47.214Z,72.13
2022-09-03T19:41:41.118Z,71.45
2022-09-03T19:45:33.772Z,71.44
2022-09-03T20:05:15.549Z,71.05
2022-09-03T20:08:54.186Z,71.53
2022-09-03T20:12:37.708Z,71.60
2022-09-03T20:16:29.227Z,71.42
2022-09-03T20:19:56.286Z,72.29
2022-09-03T20:23:41.572Z,71.92
2022-09-03T20:27:13.007Z,71.66
2022-09-03T20:31:14.253Z,71.98
2022-09-03T20:34:55.652Z,71.76
2022-09-03T20:38:47.251Z,71.90
2022-09-03T20:42:54.479Z,72.18
2022-09-03T20:46:55.601Z,72.23
2022-09-03T20:50:53.007Z,72.44
2022-09-03T20:54:46.967Z,72.50
2022-09-03T20:59:00.436Z,72.98
2022-09-03T21:03:00.611Z,72.67
2022-09-03T21:07:12.052Z,72.45
2022-09-03T21:11:16.913Z,72.36
2022-09-03T21:15:22.478Z,73.03
2022-09-03T21:19:17.864Z,72.56
2022-09-03T21:23:22.803Z,72.57
2022-09-03T21:27:22.228Z,72.39
2022-09-03T21:31:16.858Z,73.20
2022-09-03T21:35:11.522Z,73.39
2022-09-03T21:39:11.063Z,73.60
2022-09-03T21:43:15.734Z,73.58
2022-09-03T21:47:08.301Z,73.59
2022-09-03T21:51:03.738Z,73.26
2022-09-03T21:55:13.612Z,73.16
2022-09-03T21:59:09.134Z,73.70
2022-09-03T22:03:07.460Z,73.51
2022-09-03T22:07:02.751Z,73.90
2022-09-03T22:11:09.207Z,74.55
2022-09-03T22:15:13.925Z,74.23
2022-09-03T22:19:09.717Z,74.16
2022-09-03T22:27:02.942Z,74.63
2022-09-03T22:30:57.842Z,74.76
2022-09-03T22:34:51.884Z,74.65
2022-09-03T22:38:44.828Z,74.50
2022-09-03T22:42:33.074Z,74.68
2022-09-03T22:46:26.643Z,74.53
2022-09-03T22:50:34.063Z,74.46
2022-09-03T22:54:46.038Z,75.37
2022-09-03T22:58:38.467Z,75.52
2022-09-03T23:02:48.790Z,75.46
2022-09-03T23:06:41.678Z,75.61
2022-09-03T23:10:37.538Z,75.23
2022-09-03T23:14:30.265Z,75.63
2022-09-03T23:53:55.198Z,75.47
2022-09-03T23:58:00.341Z,75.62
